sensor_id;sensor_type;location;lat;lon;timestamp;temperature;humidity
13186;DHT22;6658;53.080;7.428;2023-08-01T00:03:43;16.90;99.90
13186;DHT22;6658;53.080;7.428;2023-08-01T00:06:55;16.90;99.90
13186;DHT22;6658;53.080;7.428;2023-08-01T00:09:28;16.90;99.90
13186;DHT22;6658;53.080;7.428;2023-08-01T00:19:05;16.90;99.90
13186;DHT22;6658;53.080;7.428;2023-08-01T00:21:39;16.90;99.90
13186;DHT22;6658;53.080;7.428;2023-08-01T00:24:11;16.90;99.90
13186;DHT22;6658;53.080;7.428;2023-08-01T00:26:54;16.90;99.90
13186;DHT22;6658;53.080;7.428;2023-08-01T00:32:21;16.90;99.90
13186;DHT22;6658;53.080;7.428;2023-08-01T00:34:49;16.90;99.90
13186;DHT22;6658;53.080;7.428;2023-08-01T00:37:27;16.90;99.90
13186;DHT22;6658;53.080;7.428;2023-08-01T00:40:06;16.80;99.90
13186;DHT22;6658;53.080;7.428;2023-08-01T00:49:46;16.80;99.90
13186;DHT22;6658;53.080;7.428;2023-08-01T00:53:02;16.80;99.90
13186;DHT22;6658;53.080;7.428;2023-08-01T00:55:43;16.80;99.90
13186;DHT22;6658;53.080;7.428;2023-08-01T00:58:33;16.70;99.90
13186;DHT22;6658;53.080;7.428;2023-08-01T01:01:28;16.70;99.90
13186;DHT22;6658;53.080;7.428;2023-08-01T01:04:31;16.60;99.90
13186;DHT22;6658;53.080;7.428;2023-08-01T01:07:41;16.60;99.90
13186;DHT22;6658;53.080;7.428;2023-08-01T01:10:26;16.50;99.90
13186;DHT22;6658;53.080;7.428;2023-08-01T01:13:32;16.50;99.90
13186;DHT22;6658;53.080;7.428;2023-08-01T01:16:06;16.30;99.90
13186;DHT22;6658;53.080;7.428;2023-08-01T01:18:35;16.30;99.90
13186;DHT22;6658;53.080;7.428;2023-08-01T01:21:15;16.20;99.90
13186;DHT22;6658;53.080;7.428;2023-08-01T01:30:14;16.20;99.90
13186;DHT22;6658;53.080;7.428;2023-08-01T01:33:17;16.20;99.90
13186;DHT22;6658;53.080;7.428;2023-08-01T01:36:01;16.30;99.90
13186;DHT22;6658;53.080;7.428;2023-08-01T01:38:47;16.30;99.90
13186;DHT22;6658;53.080;7.428;2023-08-01T01:41:53;16.30;99.90
13186;DHT22;6658;53.080;7.428;2023-08-01T01:45:00;16.30;99.90
13186;DHT22;6658;53.080;7.428;2023-08-01T01:47:45;16.30;99.90
13186;DHT22;6658;53.080;7.428;2023-08-01T01:50:19;16.30;99.90
13186;DHT22;6658;53.080;7.428;2023-08-01T02:06:16;16.40;99.90
13186;DHT22;6658;53.080;7.428;2023-08-01T02:08:50;16.40;99.90
13186;DHT22;6658;53.080;7.428;2023-08-01T02:11:16;16.40;99.90
13186;DHT22;6658;53.080;7.428;2023-08-01T02:13:54;16.40;99.90
13186;DHT22;6658;53.080;7.428;2023-08-01T02:16:19;16.30;99.90
13186;DHT22;6658;53.080;7.428;2023-08-01T02:18:48;16.30;99.90
13186;DHT22;6658;53.080;7.428;2023-08-01T02:21:14;16.30;99.90
13186;DHT22;6658;53.080;7.428;2023-08-01T02:23:39;16.20;99.90
13186;DHT22;6658;53.080;7.428;2023-08-01T02:26:15;16.20;99.90
13186;DHT22;6658;53.080;7.428;2023-08-01T02:28:54;16.10;99.90
13186;DHT22;6658;53.080;7.428;2023-08-01T02:31:20;16.10;99.90
13186;DHT22;6658;53.080;7.428;2023-08-01T02:33:48;16.00;99.90
13186;DHT22;6658;53.080;7.428;2023-08-01T02:36:17;16.00;99.90
13186;DHT22;6658;53.080;7.428;2023-08-01T02:38:43;15.90;99.90
13186;DHT22;6658;53.080;7.428;2023-08-01T02:41:09;15.80;99.90
13186;DHT22;6658;53.080;7.428;2023-08-01T02:47:04;15.80;99.90
13186;DHT22;6658;53.080;7.428;2023-08-01T03:11:16;15.60;99.90
13186;DHT22;6658;53.080;7.428;2023-08-01T03:27:25;15.50;99.90
13186;DHT22;6658;53.080;7.428;2023-08-01T03:30:26;15.50;99.90
13186;DHT22;6658;53.080;7.428;2023-08-01T04:06:51;15.30;99.90
13186;DHT22;6658;53.080;7.428;2023-08-01T04:24:15;15.60;99.90
13186;DHT22;6658;53.080;7.428;2023-08-01T04:33:35;16.20;99.90
13186;DHT22;6658;53.080;7.428;2023-08-01T04:39:28;16.30;99.90
13186;DHT22;6658;53.080;7.428;2023-08-01T04:41:57;16.30;99.90
13186;DHT22;6658;53.080;7.428;2023-08-01T04:47:43;16.30;99.90
13186;DHT22;6658;53.080;7.428;2023-08-01T04:53:36;16.30;99.90
13186;DHT22;6658;53.080;7.428;2023-08-01T04:59:47;16.20;99.90
13186;DHT22;6658;53.080;7.428;2023-08-01T05:02:15;16.20;99.90
13186;DHT22;6658;53.080;7.428;2023-08-01T05:04:44;16.20;99.90
13186;DHT22;6658;53.080;7.428;2023-08-01T05:07:44;16.10;99.90
13186;DHT22;6658;53.080;7.428;2023-08-01T05:10:28;16.10;99.90
13186;DHT22;6658;53.080;7.428;2023-08-01T05:12:54;16.10;99.90
13186;DHT22;6658;53.080;7.428;2023-08-01T05:15:38;16.10;99.90
13186;DHT22;6658;53.080;7.428;2023-08-01T05:18:26;16.10;99.90
13186;DHT22;6658;53.080;7.428;2023-08-01T05:20:58;16.10;99.90
13186;DHT22;6658;53.080;7.428;2023-08-01T05:23:23;16.10;99.90
13186;DHT22;6658;53.080;7.428;2023-08-01T05:25:49;16.20;99.90
13186;DHT22;6658;53.080;7.428;2023-08-01T05:28:14;16.20;99.90
13186;DHT22;6658;53.080;7.428;2023-08-01T05:30:40;16.30;99.90
13186;DHT22;6658;53.080;7.428;2023-08-01T05:33:06;16.40;99.90
13186;DHT22;6658;53.080;7.428;2023-08-01T05:35:35;16.40;99.90
13186;DHT22;6658;53.080;7.428;2023-08-01T05:38:00;16.60;99.90
13186;DHT22;6658;53.080;7.428;2023-08-01T05:40:26;16.70;99.90
13186;DHT22;6658;53.080;7.428;2023-08-01T05:42:52;17.00;99.90
13186;DHT22;6658;53.080;7.428;2023-08-01T05:45:17;17.10;99.90
13186;DHT22;6658;53.080;7.428;2023-08-01T05:47:43;17.30;99.90
13186;DHT22;6658;53.080;7.428;2023-08-01T05:50:09;17.30;99.90
13186;DHT22;6658;53.080;7.428;2023-08-01T05:52:39;17.40;99.90
13186;DHT22;6658;53.080;7.428;2023-08-01T05:55:34;17.50;99.90
13186;DHT22;6658;53.080;7.428;2023-08-01T05:58:00;17.60;99.90
13186;DHT22;6658;53.080;7.428;2023-08-01T06:00:25;17.40;99.90
13186;DHT22;6658;53.080;7.428;2023-08-01T06:02:51;17.30;99.90
13186;DHT22;6658;53.080;7.428;2023-08-01T06:05:42;17.20;99.90
13186;DHT22;6658;53.080;7.428;2023-08-01T06:08:16;17.10;99.90
13186;DHT22;6658;53.080;7.428;2023-08-01T06:10:48;17.60;99.90
13186;DHT22;6658;53.080;7.428;2023-08-01T06:13:44;18.30;99.90
13186;DHT22;6658;53.080;7.428;2023-08-01T06:16:13;18.90;99.90
13186;DHT22;6658;53.080;7.428;2023-08-01T06:18:41;19.30;99.90
13186;DHT22;6658;53.080;7.428;2023-08-01T06:21:07;19.40;99.90
13186;DHT22;6658;53.080;7.428;2023-08-01T06:26:37;19.60;99.90
13186;DHT22;6658;53.080;7.428;2023-08-01T06:29:19;19.50;99.90
13186;DHT22;6658;53.080;7.428;2023-08-01T06:32:04;19.40;99.90
13186;DHT22;6658;53.080;7.428;2023-08-01T06:34:30;19.10;99.90
13186;DHT22;6658;53.080;7.428;2023-08-01T06:36:56;18.80;99.90
13186;DHT22;6658;53.080;7.428;2023-08-01T06:39:22;18.60;99.90
13186;DHT22;6658;53.080;7.428;2023-08-01T06:41:53;18.80;99.90
13186;DHT22;6658;53.080;7.428;2023-08-01T06:44:21;18.90;99.90
13186;DHT22;6658;53.080;7.428;2023-08-01T06:46:49;19.10;99.90
13186;DHT22;6658;53.080;7.428;2023-08-01T06:49:15;19.30;99.90
13186;DHT22;6658;53.080;7.428;2023-08-01T06:51:41;19.40;99.90
13186;DHT22;6658;53.080;7.428;2023-08-01T06:54:08;19.50;99.90
13186;DHT22;6658;53.080;7.428;2023-08-01T06:56:34;19.50;99.90
13186;DHT22;6658;53.080;7.428;2023-08-01T06:58:59;19.50;99.90
13186;DHT22;6658;53.080;7.428;2023-08-01T07:01:25;19.40;99.90
13186;DHT22;6658;53.080;7.428;2023-08-01T07:03:54;19.30;99.90
13186;DHT22;6658;53.080;7.428;2023-08-01T07:06:24;19.20;99.90
13186;DHT22;6658;53.080;7.428;2023-08-01T07:08:53;19.30;99.90
13186;DHT22;6658;53.080;7.428;2023-08-01T07:11:39;19.30;99.90
13186;DHT22;6658;53.080;7.428;2023-08-01T07:14:05;19.30;99.90
13186;DHT22;6658;53.080;7.428;2023-08-01T07:16:33;19.30;99.90
13186;DHT22;6658;53.080;7.428;2023-08-01T07:19:02;19.60;99.90
13186;DHT22;6658;53.080;7.428;2023-08-01T07:21:27;19.70;99.90
13186;DHT22;6658;53.080;7.428;2023-08-01T07:23:54;19.60;99.90
13186;DHT22;6658;53.080;7.428;2023-08-01T07:26:20;19.70;99.90
13186;DHT22;6658;53.080;7.428;2023-08-01T07:28:46;19.70;99.90
13186;DHT22;6658;53.080;7.428;2023-08-01T07:31:11;19.70;99.90
13186;DHT22;6658;53.080;7.428;2023-08-01T07:33:37;19.80;99.90
13186;DHT22;6658;53.080;7.428;2023-08-01T07:36:03;19.70;99.90
13186;DHT22;6658;53.080;7.428;2023-08-01T07:38:29;19.70;99.90
13186;DHT22;6658;53.080;7.428;2023-08-01T07:40:59;19.60;99.90
13186;DHT22;6658;53.080;7.428;2023-08-01T07:43:30;19.40;99.90
13186;DHT22;6658;53.080;7.428;2023-08-01T07:45:58;19.30;99.90
13186;DHT22;6658;53.080;7.428;2023-08-01T07:48:26;19.30;99.90
13186;DHT22;6658;53.080;7.428;2023-08-01T07:50:52;19.40;99.90
13186;DHT22;6658;53.080;7.428;2023-08-01T07:53:18;19.40;99.90
13186;DHT22;6658;53.080;7.428;2023-08-01T07:55:44;19.50;99.90
13186;DHT22;6658;53.080;7.428;2023-08-01T07:58:10;19.60;99.90
13186;DHT22;6658;53.080;7.428;2023-08-01T08:00:35;19.50;99.90
13186;DHT22;6658;53.080;7.428;2023-08-01T08:03:01;19.60;99.90
13186;DHT22;6658;53.080;7.428;2023-08-01T08:05:27;19.90;99.90
13186;DHT22;6658;53.080;7.428;2023-08-01T08:07:52;20.00;99.90
13186;DHT22;6658;53.080;7.428;2023-08-01T08:10:18;20.00;99.90
13186;DHT22;6658;53.080;7.428;2023-08-01T08:12:44;20.10;99.90
13186;DHT22;6658;53.080;7.428;2023-08-01T08:15:10;20.20;99.90
13186;DHT22;6658;53.080;7.428;2023-08-01T08:17:42;20.30;99.90
13186;DHT22;6658;53.080;7.428;2023-08-01T08:20:11;20.20;99.90
13186;DHT22;6658;53.080;7.428;2023-08-01T08:22:37;20.20;99.90
13186;DHT22;6658;53.080;7.428;2023-08-01T08:25:02;20.00;99.90
13186;DHT22;6658;53.080;7.428;2023-08-01T08:27:28;19.70;99.90
13186;DHT22;6658;53.080;7.428;2023-08-01T08:29:59;19.40;99.90
13186;DHT22;6658;53.080;7.428;2023-08-01T08:32:25;19.10;99.90
13186;DHT22;6658;53.080;7.428;2023-08-01T08:34:51;18.90;99.90
13186;DHT22;6658;53.080;7.428;2023-08-01T08:37:17;18.90;99.90
13186;DHT22;6658;53.080;7.428;2023-08-01T08:39:42;18.80;99.90
13186;DHT22;6658;53.080;7.428;2023-08-01T08:42:10;18.80;99.90
13186;DHT22;6658;53.080;7.428;2023-08-01T08:44:42;19.00;99.90
13186;DHT22;6658;53.080;7.428;2023-08-01T08:47:10;19.10;99.90
13186;DHT22;6658;53.080;7.428;2023-08-01T08:49:36;19.20;99.90
13186;DHT22;6658;53.080;7.428;2023-08-01T08:52:03;19.10;99.90
13186;DHT22;6658;53.080;7.428;2023-08-01T08:54:32;19.00;99.90
13186;DHT22;6658;53.080;7.428;2023-08-01T08:57:37;18.80;99.90
13186;DHT22;6658;53.080;7.428;2023-08-01T09:00:17;18.40;99.90
13186;DHT22;6658;53.080;7.428;2023-08-01T09:03:04;18.00;99.90
13186;DHT22;6658;53.080;7.428;2023-08-01T09:05:49;17.80;99.90
13186;DHT22;6658;53.080;7.428;2023-08-01T09:11:08;17.80;99.90
13186;DHT22;6658;53.080;7.428;2023-08-01T09:13:34;17.90;99.90
13186;DHT22;6658;53.080;7.428;2023-08-01T09:16:03;18.00;99.90
13186;DHT22;6658;53.080;7.428;2023-08-01T09:18:56;18.20;99.90
13186;DHT22;6658;53.080;7.428;2023-08-01T09:21:22;18.40;99.90
13186;DHT22;6658;53.080;7.428;2023-08-01T09:23:51;18.60;99.90
13186;DHT22;6658;53.080;7.428;2023-08-01T09:26:19;18.80;99.90
13186;DHT22;6658;53.080;7.428;2023-08-01T09:29:00;18.90;99.90
13186;DHT22;6658;53.080;7.428;2023-08-01T09:31:27;18.90;99.90
13186;DHT22;6658;53.080;7.428;2023-08-01T09:34:18;18.70;99.90
13186;DHT22;6658;53.080;7.428;2023-08-01T09:36:42;18.50;99.90
13186;DHT22;6658;53.080;7.428;2023-08-01T09:39:08;18.40;99.90
13186;DHT22;6658;53.080;7.428;2023-08-01T09:41:34;18.30;99.90
13186;DHT22;6658;53.080;7.428;2023-08-01T09:43:59;18.30;99.90
13186;DHT22;6658;53.080;7.428;2023-08-01T09:46:25;18.50;99.90
13186;DHT22;6658;53.080;7.428;2023-08-01T09:48:51;18.80;99.90
13186;DHT22;6658;53.080;7.428;2023-08-01T09:51:21;19.30;99.90
13186;DHT22;6658;53.080;7.428;2023-08-01T09:53:48;19.70;99.90
13186;DHT22;6658;53.080;7.428;2023-08-01T09:56:17;20.30;99.90
13186;DHT22;6658;53.080;7.428;2023-08-01T09:58:44;20.60;99.90
13186;DHT22;6658;53.080;7.428;2023-08-01T10:01:11;20.60;99.90
13186;DHT22;6658;53.080;7.428;2023-08-01T10:03:39;20.50;99.90
13186;DHT22;6658;53.080;7.428;2023-08-01T10:06:06;20.40;99.90
13186;DHT22;6658;53.080;7.428;2023-08-01T10:08:32;20.20;99.90
13186;DHT22;6658;53.080;7.428;2023-08-01T10:10:59;20.10;99.90
13186;DHT22;6658;53.080;7.428;2023-08-01T10:13:27;19.90;99.90
13186;DHT22;6658;53.080;7.428;2023-08-01T10:15:54;20.10;99.90
13186;DHT22;6658;53.080;7.428;2023-08-01T10:18:20;20.30;99.90
13186;DHT22;6658;53.080;7.428;2023-08-01T10:20:47;20.50;99.90
13186;DHT22;6658;53.080;7.428;2023-08-01T10:23:14;20.80;99.90
13186;DHT22;6658;53.080;7.428;2023-08-01T10:25:40;20.80;99.90
13186;DHT22;6658;53.080;7.428;2023-08-01T10:28:06;20.80;99.90
13186;DHT22;6658;53.080;7.428;2023-08-01T10:30:32;20.70;99.90
13186;DHT22;6658;53.080;7.428;2023-08-01T10:33:06;20.60;99.90
13186;DHT22;6658;53.080;7.428;2023-08-01T10:35:39;20.60;99.90
13186;DHT22;6658;53.080;7.428;2023-08-01T10:38:09;20.70;99.90
13186;DHT22;6658;53.080;7.428;2023-08-01T10:40:38;20.60;99.90
13186;DHT22;6658;53.080;7.428;2023-08-01T10:43:04;20.80;99.90
13186;DHT22;6658;53.080;7.428;2023-08-01T10:45:30;22.00;99.90
13186;DHT22;6658;53.080;7.428;2023-08-01T10:48:09;22.50;99.90
13186;DHT22;6658;53.080;7.428;2023-08-01T10:50:39;22.30;99.90
13186;DHT22;6658;53.080;7.428;2023-08-01T10:53:07;21.90;99.90
13186;DHT22;6658;53.080;7.428;2023-08-01T10:55:45;21.50;99.90
13186;DHT22;6658;53.080;7.428;2023-08-01T10:58:12;21.00;99.90
13186;DHT22;6658;53.080;7.428;2023-08-01T11:00:38;20.80;99.90
13186;DHT22;6658;53.080;7.428;2023-08-01T11:03:07;20.80;99.90
13186;DHT22;6658;53.080;7.428;2023-08-01T11:05:41;21.30;99.90
13186;DHT22;6658;53.080;7.428;2023-08-01T11:08:06;21.40;99.90
13186;DHT22;6658;53.080;7.428;2023-08-01T11:10:33;21.50;99.90
13186;DHT22;6658;53.080;7.428;2023-08-01T11:13:01;21.50;99.90
13186;DHT22;6658;53.080;7.428;2023-08-01T11:15:26;21.40;99.90
13186;DHT22;6658;53.080;7.428;2023-08-01T11:18:04;21.60;99.90
13186;DHT22;6658;53.080;7.428;2023-08-01T11:20:29;21.70;99.90
13186;DHT22;6658;53.080;7.428;2023-08-01T11:22:57;21.70;99.90
13186;DHT22;6658;53.080;7.428;2023-08-01T11:28:11;21.00;99.90
13186;DHT22;6658;53.080;7.428;2023-08-01T11:30:37;20.60;99.90
13186;DHT22;6658;53.080;7.428;2023-08-01T11:33:20;20.20;99.90
13186;DHT22;6658;53.080;7.428;2023-08-01T11:35:53;19.90;99.90
13186;DHT22;6658;53.080;7.428;2023-08-01T11:38:23;19.60;99.90
13186;DHT22;6658;53.080;7.428;2023-08-01T11:40:51;19.30;99.90
13186;DHT22;6658;53.080;7.428;2023-08-01T11:43:17;19.10;99.90
13186;DHT22;6658;53.080;7.428;2023-08-01T11:45:54;18.90;99.90
13186;DHT22;6658;53.080;7.428;2023-08-01T11:48:23;18.70;99.90
13186;DHT22;6658;53.080;7.428;2023-08-01T11:50:55;18.60;99.90
13186;DHT22;6658;53.080;7.428;2023-08-01T11:53:25;18.60;99.90
13186;DHT22;6658;53.080;7.428;2023-08-01T11:55:51;18.90;99.90
13186;DHT22;6658;53.080;7.428;2023-08-01T11:58:34;19.20;99.90
13186;DHT22;6658;53.080;7.428;2023-08-01T12:01:15;19.60;99.90
13186;DHT22;6658;53.080;7.428;2023-08-01T12:03:44;19.60;99.90
13186;DHT22;6658;53.080;7.428;2023-08-01T12:06:18;18.90;99.90
13186;DHT22;6658;53.080;7.428;2023-08-01T12:08:49;18.30;99.90
13186;DHT22;6658;53.080;7.428;2023-08-01T12:11:28;18.00;99.90
13186;DHT22;6658;53.080;7.428;2023-08-01T12:14:10;18.00;99.90
13186;DHT22;6658;53.080;7.428;2023-08-01T12:16:41;18.30;99.90
13186;DHT22;6658;53.080;7.428;2023-08-01T12:19:18;18.50;99.90
13186;DHT22;6658;53.080;7.428;2023-08-01T12:21:49;18.70;99.90
13186;DHT22;6658;53.080;7.428;2023-08-01T12:24:15;19.00;99.90
13186;DHT22;6658;53.080;7.428;2023-08-01T12:26:43;19.20;99.90
13186;DHT22;6658;53.080;7.428;2023-08-01T12:29:12;19.50;99.90
13186;DHT22;6658;53.080;7.428;2023-08-01T12:31:48;19.70;99.90
13186;DHT22;6658;53.080;7.428;2023-08-01T12:34:14;20.00;99.90
13186;DHT22;6658;53.080;7.428;2023-08-01T12:36:40;20.30;99.90
13186;DHT22;6658;53.080;7.428;2023-08-01T12:39:06;20.50;99.90
13186;DHT22;6658;53.080;7.428;2023-08-01T12:41:39;20.80;99.90
13186;DHT22;6658;53.080;7.428;2023-08-01T12:44:11;20.70;99.90
13186;DHT22;6658;53.080;7.428;2023-08-01T12:46:37;20.60;99.90
13186;DHT22;6658;53.080;7.428;2023-08-01T12:49:04;20.40;99.90
13186;DHT22;6658;53.080;7.428;2023-08-01T12:51:30;20.10;99.90
13186;DHT22;6658;53.080;7.428;2023-08-01T12:54:02;19.90;99.90
13186;DHT22;6658;53.080;7.428;2023-08-01T12:56:27;19.70;99.90
13186;DHT22;6658;53.080;7.428;2023-08-01T12:58:53;19.60;99.90
13186;DHT22;6658;53.080;7.428;2023-08-01T13:01:19;19.50;99.90
13186;DHT22;6658;53.080;7.428;2023-08-01T13:03:45;19.60;99.90
13186;DHT22;6658;53.080;7.428;2023-08-01T13:06:13;19.50;99.90
13186;DHT22;6658;53.080;7.428;2023-08-01T13:08:39;19.50;99.90
13186;DHT22;6658;53.080;7.428;2023-08-01T13:11:14;19.50;99.90
13186;DHT22;6658;53.080;7.428;2023-08-01T13:13:41;19.70;99.90
13186;DHT22;6658;53.080;7.428;2023-08-01T13:16:07;19.90;99.90
13186;DHT22;6658;53.080;7.428;2023-08-01T13:18:33;20.10;99.90
13186;DHT22;6658;53.080;7.428;2023-08-01T13:21:01;20.10;99.90
13186;DHT22;6658;53.080;7.428;2023-08-01T13:23:27;20.20;99.90
13186;DHT22;6658;53.080;7.428;2023-08-01T13:25:53;20.10;99.90
13186;DHT22;6658;53.080;7.428;2023-08-01T13:28:19;19.90;99.90
13186;DHT22;6658;53.080;7.428;2023-08-01T13:30:45;19.50;99.90
13186;DHT22;6658;53.080;7.428;2023-08-01T13:33:10;18.80;99.90
13186;DHT22;6658;53.080;7.428;2023-08-01T13:35:36;18.20;99.90
13186;DHT22;6658;53.080;7.428;2023-08-01T13:38:05;17.60;99.90
13186;DHT22;6658;53.080;7.428;2023-08-01T13:40:32;17.40;99.90
13186;DHT22;6658;53.080;7.428;2023-08-01T13:43:04;17.40;99.90
13186;DHT22;6658;53.080;7.428;2023-08-01T13:45:33;17.40;99.90
13186;DHT22;6658;53.080;7.428;2023-08-01T13:48:01;17.50;99.90
13186;DHT22;6658;53.080;7.428;2023-08-01T13:50:29;17.70;99.90
13186;DHT22;6658;53.080;7.428;2023-08-01T13:52:59;17.90;99.90
13186;DHT22;6658;53.080;7.428;2023-08-01T13:55:24;18.20;99.90
13186;DHT22;6658;53.080;7.428;2023-08-01T13:57:50;18.30;99.90
13186;DHT22;6658;53.080;7.428;2023-08-01T14:00:16;18.50;99.90
13186;DHT22;6658;53.080;7.428;2023-08-01T14:02:42;18.60;99.90
13186;DHT22;6658;53.080;7.428;2023-08-01T14:05:08;18.60;99.90
13186;DHT22;6658;53.080;7.428;2023-08-01T14:07:37;18.40;99.90
13186;DHT22;6658;53.080;7.428;2023-08-01T14:10:09;18.10;99.90
13186;DHT22;6658;53.080;7.428;2023-08-01T14:12:35;17.90;99.90
13186;DHT22;6658;53.080;7.428;2023-08-01T14:15:01;17.80;99.90
13186;DHT22;6658;53.080;7.428;2023-08-01T14:17:27;17.80;99.90
13186;DHT22;6658;53.080;7.428;2023-08-01T14:19:52;17.90;99.90
13186;DHT22;6658;53.080;7.428;2023-08-01T14:22:18;18.20;99.90
13186;DHT22;6658;53.080;7.428;2023-08-01T14:24:44;18.40;99.90
13186;DHT22;6658;53.080;7.428;2023-08-01T14:27:10;18.70;99.90
13186;DHT22;6658;53.080;7.428;2023-08-01T14:29:35;18.90;99.90
13186;DHT22;6658;53.080;7.428;2023-08-01T14:32:01;18.90;99.90
13186;DHT22;6658;53.080;7.428;2023-08-01T14:34:27;19.00;99.90
13186;DHT22;6658;53.080;7.428;2023-08-01T14:36:58;19.20;99.90
13186;DHT22;6658;53.080;7.428;2023-08-01T14:39:24;19.30;99.90
13186;DHT22;6658;53.080;7.428;2023-08-01T14:41:52;19.30;99.90
13186;DHT22;6658;53.080;7.428;2023-08-01T14:44:21;19.30;99.90
13186;DHT22;6658;53.080;7.428;2023-08-01T14:46:47;19.20;99.90
13186;DHT22;6658;53.080;7.428;2023-08-01T14:49:13;19.30;99.90
13186;DHT22;6658;53.080;7.428;2023-08-01T14:51:38;19.20;99.90
13186;DHT22;6658;53.080;7.428;2023-08-01T14:54:04;19.10;99.90
13186;DHT22;6658;53.080;7.428;2023-08-01T14:56:30;19.00;99.90
13186;DHT22;6658;53.080;7.428;2023-08-01T14:58:56;18.90;99.90
13186;DHT22;6658;53.080;7.428;2023-08-01T15:01:22;18.80;99.90
13186;DHT22;6658;53.080;7.428;2023-08-01T15:03:48;18.60;99.90
13186;DHT22;6658;53.080;7.428;2023-08-01T15:06:14;18.60;99.90
13186;DHT22;6658;53.080;7.428;2023-08-01T15:08:41;18.60;99.90
13186;DHT22;6658;53.080;7.428;2023-08-01T15:11:11;18.80;99.90
13186;DHT22;6658;53.080;7.428;2023-08-01T15:13:36;18.90;99.90
13186;DHT22;6658;53.080;7.428;2023-08-01T15:16:09;19.00;99.90
13186;DHT22;6658;53.080;7.428;2023-08-01T15:18:36;19.00;99.90
13186;DHT22;6658;53.080;7.428;2023-08-01T15:21:05;18.90;99.90
13186;DHT22;6658;53.080;7.428;2023-08-01T15:23:30;18.90;99.90
13186;DHT22;6658;53.080;7.428;2023-08-01T15:25:57;18.90;99.90
13186;DHT22;6658;53.080;7.428;2023-08-01T15:28:24;18.90;99.90
13186;DHT22;6658;53.080;7.428;2023-08-01T15:31:04;19.00;99.90
13186;DHT22;6658;53.080;7.428;2023-08-01T15:33:35;19.10;99.90
13186;DHT22;6658;53.080;7.428;2023-08-01T15:36:04;19.00;99.90
13186;DHT22;6658;53.080;7.428;2023-08-01T15:38:31;18.90;99.90
13186;DHT22;6658;53.080;7.428;2023-08-01T15:40:57;18.80;99.90
13186;DHT22;6658;53.080;7.428;2023-08-01T15:43:25;18.70;99.90
13186;DHT22;6658;53.080;7.428;2023-08-01T15:45:54;18.60;99.90
13186;DHT22;6658;53.080;7.428;2023-08-01T15:48:19;18.50;99.90
13186;DHT22;6658;53.080;7.428;2023-08-01T15:50:45;18.40;99.90
13186;DHT22;6658;53.080;7.428;2023-08-01T15:53:11;18.10;99.90
13186;DHT22;6658;53.080;7.428;2023-08-01T15:55:37;18.00;99.90
13186;DHT22;6658;53.080;7.428;2023-08-01T15:58:03;18.00;99.90
13186;DHT22;6658;53.080;7.428;2023-08-01T16:00:31;18.10;99.90
13186;DHT22;6658;53.080;7.428;2023-08-01T16:02:58;18.10;99.90
13186;DHT22;6658;53.080;7.428;2023-08-01T16:05:23;18.10;99.90
13186;DHT22;6658;53.080;7.428;2023-08-01T16:07:49;18.10;99.90
13186;DHT22;6658;53.080;7.428;2023-08-01T16:10:15;18.00;99.90
13186;DHT22;6658;53.080;7.428;2023-08-01T16:12:41;17.90;99.90
13186;DHT22;6658;53.080;7.428;2023-08-01T16:15:07;18.10;99.90
13186;DHT22;6658;53.080;7.428;2023-08-01T16:17:39;18.10;99.90
13186;DHT22;6658;53.080;7.428;2023-08-01T16:20:05;18.10;99.90
13186;DHT22;6658;53.080;7.428;2023-08-01T16:22:31;18.10;99.90
13186;DHT22;6658;53.080;7.428;2023-08-01T16:25:00;18.00;99.90
13186;DHT22;6658;53.080;7.428;2023-08-01T16:27:25;18.00;99.90
13186;DHT22;6658;53.080;7.428;2023-08-01T16:29:51;18.00;99.90
13186;DHT22;6658;53.080;7.428;2023-08-01T16:32:20;18.10;99.90
13186;DHT22;6658;53.080;7.428;2023-08-01T16:34:45;18.10;99.90
13186;DHT22;6658;53.080;7.428;2023-08-01T16:37:14;18.20;99.90
13186;DHT22;6658;53.080;7.428;2023-08-01T16:39:42;18.20;99.90
13186;DHT22;6658;53.080;7.428;2023-08-01T16:42:08;18.10;99.90
13186;DHT22;6658;53.080;7.428;2023-08-01T16:44:37;18.10;99.90
13186;DHT22;6658;53.080;7.428;2023-08-01T16:47:03;18.20;99.90
13186;DHT22;6658;53.080;7.428;2023-08-01T16:49:29;18.30;99.90
13186;DHT22;6658;53.080;7.428;2023-08-01T16:51:57;18.20;99.90
13186;DHT22;6658;53.080;7.428;2023-08-01T16:54:23;18.10;99.90
13186;DHT22;6658;53.080;7.428;2023-08-01T16:56:55;17.90;99.90
13186;DHT22;6658;53.080;7.428;2023-08-01T16:59:21;17.80;99.90
13186;DHT22;6658;53.080;7.428;2023-08-01T17:01:58;17.80;99.90
13186;DHT22;6658;53.080;7.428;2023-08-01T17:04:24;17.80;99.90
13186;DHT22;6658;53.080;7.428;2023-08-01T17:06:55;17.80;99.90
13186;DHT22;6658;53.080;7.428;2023-08-01T17:09:29;17.80;99.90
13186;DHT22;6658;53.080;7.428;2023-08-01T17:11:56;17.80;99.90
13186;DHT22;6658;53.080;7.428;2023-08-01T17:14:28;17.80;99.90
13186;DHT22;6658;53.080;7.428;2023-08-01T17:16:58;17.80;99.90
13186;DHT22;6658;53.080;7.428;2023-08-01T17:19:24;17.80;99.90
13186;DHT22;6658;53.080;7.428;2023-08-01T17:21:49;17.80;99.90
13186;DHT22;6658;53.080;7.428;2023-08-01T17:24:16;17.90;99.90
13186;DHT22;6658;53.080;7.428;2023-08-01T17:26:42;18.10;99.90
13186;DHT22;6658;53.080;7.428;2023-08-01T17:29:11;18.30;99.90
13186;DHT22;6658;53.080;7.428;2023-08-01T17:31:38;18.50;99.90
13186;DHT22;6658;53.080;7.428;2023-08-01T17:34:04;18.50;99.90
13186;DHT22;6658;53.080;7.428;2023-08-01T17:36:30;18.40;99.90
13186;DHT22;6658;53.080;7.428;2023-08-01T17:38:56;18.20;99.90
13186;DHT22;6658;53.080;7.428;2023-08-01T17:41:24;18.00;99.90
13186;DHT22;6658;53.080;7.428;2023-08-01T17:43:51;17.80;99.90
13186;DHT22;6658;53.080;7.428;2023-08-01T17:46:17;17.60;99.90
13186;DHT22;6658;53.080;7.428;2023-08-01T17:48:46;17.40;99.90
13186;DHT22;6658;53.080;7.428;2023-08-01T17:51:12;17.20;99.90
13186;DHT22;6658;53.080;7.428;2023-08-01T17:53:38;17.10;99.90
13186;DHT22;6658;53.080;7.428;2023-08-01T17:56:04;17.00;99.90
13186;DHT22;6658;53.080;7.428;2023-08-01T17:58:31;17.00;99.90
13186;DHT22;6658;53.080;7.428;2023-08-01T18:00:57;17.00;99.90
13186;DHT22;6658;53.080;7.428;2023-08-01T18:03:45;17.00;99.90
13186;DHT22;6658;53.080;7.428;2023-08-01T18:06:13;17.00;99.90
13186;DHT22;6658;53.080;7.428;2023-08-01T18:08:40;17.00;99.90
13186;DHT22;6658;53.080;7.428;2023-08-01T18:11:13;17.00;99.90
13186;DHT22;6658;53.080;7.428;2023-08-01T18:13:43;16.90;99.90
13186;DHT22;6658;53.080;7.428;2023-08-01T18:16:08;16.80;99.90
13186;DHT22;6658;53.080;7.428;2023-08-01T18:18:35;16.80;99.90
13186;DHT22;6658;53.080;7.428;2023-08-01T18:21:03;16.80;99.90
13186;DHT22;6658;53.080;7.428;2023-08-01T18:23:37;16.70;99.90
13186;DHT22;6658;53.080;7.428;2023-08-01T18:26:15;16.80;99.90
13186;DHT22;6658;53.080;7.428;2023-08-01T18:28:54;16.90;99.90
13186;DHT22;6658;53.080;7.428;2023-08-01T18:31:23;17.10;99.90
13186;DHT22;6658;53.080;7.428;2023-08-01T18:33:49;17.20;99.90
13186;DHT22;6658;53.080;7.428;2023-08-01T18:36:24;17.30;99.90
13186;DHT22;6658;53.080;7.428;2023-08-01T18:39:08;17.20;99.90
13186;DHT22;6658;53.080;7.428;2023-08-01T18:41:43;17.10;99.90